createdAt,value
2022-08-30T00:00:10.328Z,31.06
2022-08-30T00:02:39.893Z,31.00
2022-08-30T00:07:53.597Z,30.90
2022-08-30T00:10:21.509Z,30.86
2022-08-30T00:12:50.774Z,30.86
2022-08-30T00:15:23.144Z,30.88
2022-08-30T00:17:51.208Z,30.82
2022-08-30T00:20:27.035Z,30.82
2022-08-30T00:22:55.732Z,30.82
2022-08-30T00:32:51.578Z,30.74
2022-08-30T00:35:21.610Z,30.71
2022-08-30T00:37:51.023Z,30.66
2022-08-30T00:40:27.239Z,30.64
2022-08-30T00:43:00.487Z,30.60
2022-08-30T00:45:39.724Z,30.59
2022-08-30T00:48:09.673Z,30.56
2022-08-30T00:56:02.466Z,30.53
2022-08-30T00:58:37.050Z,30.54
2022-08-30T01:01:12.821Z,30.52
2022-08-30T01:03:43.348Z,30.52
2022-08-30T01:06:15.448Z,30.50
2022-08-30T01:08:44.726Z,30.47
2022-08-30T01:11:17.982Z,30.48
2022-08-30T01:19:06.661Z,30.46
2022-08-30T01:21:46.468Z,30.45
2022-08-30T01:24:14.849Z,30.38
2022-08-30T01:26:42.326Z,30.36
2022-08-30T01:29:21.243Z,30.39
2022-08-30T01:31:51.680Z,30.37
2022-08-30T01:34:21.485Z,30.36
2022-08-30T01:44:44.180Z,30.26
2022-08-30T01:47:11.730Z,30.27
2022-08-30T01:49:43.437Z,30.28
2022-08-30T01:52:12.722Z,30.26
2022-08-30T01:54:43.183Z,30.26
2022-08-30T01:57:14.973Z,30.25
2022-08-30T01:59:47.458Z,30.23
2022-08-30T02:10:11.892Z,30.25
2022-08-30T02:12:41.502Z,30.25
2022-08-30T02:15:13.837Z,30.25
2022-08-30T02:17:42.314Z,30.24
2022-08-30T02:20:12.309Z,30.26
2022-08-30T02:22:43.419Z,30.25
2022-08-30T02:25:21.008Z,30.26
2022-08-30T02:27:51.829Z,30.26
2022-08-30T02:35:25.896Z,30.23
2022-08-30T02:37:53.932Z,30.24
2022-08-30T02:40:22.196Z,30.25
2022-08-30T02:42:51.454Z,30.26
2022-08-30T02:45:20.735Z,30.23
2022-08-30T02:47:50.006Z,30.20
2022-08-30T02:50:20.163Z,30.18
2022-08-30T02:55:26.247Z,30.10
2022-08-30T02:57:53.654Z,30.12
2022-08-30T03:00:22.073Z,30.10
2022-08-30T03:02:54.121Z,30.10
2022-08-30T03:05:21.759Z,30.08
2022-08-30T03:07:51.602Z,30.08
2022-08-30T03:10:21.001Z,30.07
2022-08-30T03:17:15.496Z,30.04
2022-08-30T03:19:44.828Z,30.01
2022-08-30T03:22:12.910Z,30.02
2022-08-30T03:24:41.725Z,30.01
2022-08-30T03:27:11.169Z,30.02
2022-08-30T03:29:40.825Z,30.02
2022-08-30T03:32:09.606Z,30.01
2022-08-30T03:37:26.854Z,29.96
2022-08-30T03:39:56.576Z,29.94
2022-08-30T03:42:24.828Z,29.96
2022-08-30T03:44:52.376Z,29.97
2022-08-30T03:47:21.600Z,29.98
2022-08-30T03:49:50.867Z,29.95
2022-08-30T03:52:19.817Z,29.93
2022-08-30T03:54:47.817Z,29.91
2022-08-30T04:02:01.568Z,29.87
2022-08-30T04:04:30.995Z,29.87
2022-08-30T04:06:59.875Z,29.87
2022-08-30T04:09:27.357Z,29.85
2022-08-30T04:11:54.736Z,29.85
2022-08-30T04:14:23.200Z,29.83
2022-08-30T04:16:51.933Z,29.81
2022-08-30T04:24:25.000Z,29.79
2022-08-30T04:26:52.448Z,29.78
2022-08-30T04:29:21.101Z,29.76
2022-08-30T04:31:50.119Z,29.77
2022-08-30T04:34:17.466Z,29.77
2022-08-30T04:36:48.487Z,29.76
2022-08-30T04:39:20.253Z,29.77
2022-08-30T04:44:34.812Z,29.74
2022-08-30T04:47:02.323Z,29.76
2022-08-30T04:49:32.853Z,29.77
2022-08-30T04:52:01.737Z,29.77
2022-08-30T04:54:31.014Z,29.76
2022-08-30T04:57:00.296Z,29.73
2022-08-30T04:59:29.855Z,29.72
2022-08-30T05:07:01.603Z,29.69
2022-08-30T05:09:31.036Z,29.69
2022-08-30T05:12:00.334Z,29.66
2022-08-30T05:14:27.909Z,29.66
2022-08-30T05:16:57.156Z,29.65
2022-08-30T05:19:24.614Z,29.65
2022-08-30T05:21:52.049Z,29.67
2022-08-30T05:27:12.041Z,29.64
2022-08-30T05:29:42.370Z,29.62
2022-08-30T05:32:11.814Z,29.63
2022-08-30T05:34:40.616Z,29.62
2022-08-30T05:37:08.479Z,29.64
2022-08-30T05:39:51.292Z,29.65
2022-08-30T05:45:11.337Z,29.65
2022-08-30T05:47:41.771Z,29.66
2022-08-30T05:50:11.663Z,29.65
2022-08-30T05:52:42.081Z,29.64
2022-08-30T05:55:12.514Z,29.64
2022-08-30T05:57:41.964Z,29.60
2022-08-30T06:00:13.643Z,29.59
2022-08-30T06:06:22.549Z,29.57
2022-08-30T06:08:51.922Z,29.57
2022-08-30T06:11:23.492Z,29.60
2022-08-30T06:13:53.395Z,29.65
2022-08-30T06:16:26.118Z,29.66
2022-08-30T06:18:55.425Z,29.64
2022-08-30T06:21:31.595Z,29.64
2022-08-30T06:29:11.182Z,29.67
2022-08-30T06:31:40.466Z,29.68
2022-08-30T06:34:10.103Z,29.70
2022-08-30T06:36:40.648Z,29.74
2022-08-30T06:39:11.430Z,29.73
2022-08-30T06:41:41.592Z,29.72
2022-08-30T06:44:24.218Z,29.71
2022-08-30T06:46:52.410Z,29.70
2022-08-30T06:54:21.829Z,29.75
2022-08-30T06:56:59.069Z,29.74
2022-08-30T06:59:27.696Z,29.71
2022-08-30T07:01:56.147Z,29.67
2022-08-30T07:04:24.176Z,29.64
2022-08-30T07:06:53.116Z,29.65
2022-08-30T07:09:25.033Z,29.66
2022-08-30T07:16:22.763Z,29.54
2022-08-30T07:18:54.738Z,29.46
2022-08-30T07:21:27.469Z,29.31
2022-08-30T07:23:57.357Z,29.17
2022-08-30T07:26:28.232Z,29.09
2022-08-30T07:28:57.751Z,29.02
2022-08-30T07:31:25.753Z,29.01
2022-08-30T07:36:32.974Z,28.93
2022-08-30T07:39:02.259Z,28.94
2022-08-30T07:41:38.353Z,28.93
2022-08-30T07:44:10.789Z,28.94
2022-08-30T07:46:41.950Z,28.96
2022-08-30T07:49:12.851Z,29.01
2022-08-30T07:51:42.723Z,29.03
2022-08-30T07:58:31.025Z,28.99
2022-08-30T08:01:03.513Z,29.01
2022-08-30T08:03:32.502Z,28.99
2022-08-30T08:06:03.957Z,29.01
2022-08-30T08:08:32.337Z,29.02
2022-08-30T08:11:07.575Z,29.05
2022-08-30T08:13:44.648Z,29.04
2022-08-30T08:20:22.859Z,29.06
2022-08-30T08:22:52.226Z,29.07
2022-08-30T08:25:21.612Z,29.06
2022-08-30T08:27:52.155Z,29.08
2022-08-30T08:30:21.783Z,29.02
2022-08-30T08:32:52.074Z,29.01
2022-08-30T08:35:24.244Z,28.96
2022-08-30T08:37:53.977Z,28.96
2022-08-30T08:46:17.811Z,29.01
2022-08-30T08:49:01.410Z,28.94
2022-08-30T08:51:52.534Z,28.96
2022-08-30T08:54:46.696Z,28.94
2022-08-30T08:57:17.038Z,28.89
2022-08-30T08:59:45.958Z,28.90
2022-08-30T09:10:51.990Z,28.89
2022-08-30T09:13:25.244Z,28.88
2022-08-30T09:15:55.284Z,28.87
2022-08-30T09:18:54.868Z,28.88
2022-08-30T09:21:27.656Z,28.85
2022-08-30T09:24:01.921Z,28.84
2022-08-30T09:26:36.691Z,28.86
2022-08-30T09:33:23.689Z,28.77
2022-08-30T09:35:54.120Z,28.76
2022-08-30T09:38:34.794Z,28.78
2022-08-30T09:41:22.065Z,28.69
2022-08-30T09:44:14.174Z,28.71
2022-08-30T09:46:50.735Z,28.71
2022-08-30T09:49:35.820Z,28.73
2022-08-30T09:58:12.845Z,28.73
2022-08-30T10:01:05.139Z,28.77
2022-08-30T10:03:51.993Z,28.75
2022-08-30T10:06:43.018Z,28.75
2022-08-30T10:09:28.590Z,28.74
2022-08-30T10:12:16.428Z,28.74
2022-08-30T10:15:02.070Z,28.73
2022-08-30T10:23:18.224Z,28.71
2022-08-30T10:26:13.985Z,28.72
2022-08-30T10:29:03.501Z,28.71
2022-08-30T10:31:56.904Z,28.72
2022-08-30T10:34:32.028Z,28.70
2022-08-30T10:37:14.070Z,28.73
2022-08-30T10:39:52.385Z,28.74
2022-08-30T10:48:27.260Z,28.78
2022-08-30T10:50:59.872Z,28.76
2022-08-30T10:53:57.907Z,28.77
2022-08-30T10:56:31.873Z,28.77
2022-08-30T10:59:01.644Z,28.76
2022-08-30T11:01:56.584Z,28.78
2022-08-30T11:04:31.524Z,28.78
2022-08-30T11:15:24.999Z,28.84
2022-08-30T11:18:04.397Z,28.85
2022-08-30T11:20:52.348Z,28.89
2022-08-30T11:23:36.214Z,28.90
2022-08-30T11:26:07.750Z,28.95
2022-08-30T11:28:41.130Z,29.04
2022-08-30T11:31:22.462Z,29.13
2022-08-30T11:37:09.826Z,29.63
2022-08-30T11:39:47.284Z,29.60
2022-08-30T11:42:29.315Z,29.66
2022-08-30T11:45:25.324Z,29.76
2022-08-30T11:48:11.882Z,29.87
2022-08-30T11:51:06.936Z,30.02
2022-08-30T11:53:45.484Z,30.15
2022-08-30T12:04:37.369Z,30.75
2022-08-30T12:07:08.046Z,30.90
2022-08-30T12:09:35.726Z,31.11
2022-08-30T12:12:13.801Z,31.30
2022-08-30T12:14:51.977Z,31.54
2022-08-30T12:17:52.221Z,31.70
2022-08-30T12:20:22.366Z,31.84
2022-08-30T12:27:33.339Z,31.95
2022-08-30T12:30:06.990Z,31.93
2022-08-30T12:32:42.992Z,31.87
2022-08-30T12:35:27.997Z,31.92
2022-08-30T12:38:12.461Z,32.02
2022-08-30T12:40:54.249Z,32.11
2022-08-30T12:43:40.280Z,32.11
2022-08-30T12:50:44.282Z,31.94
2022-08-30T12:53:14.346Z,32.12
2022-08-30T12:56:02.335Z,32.33
2022-08-30T12:58:51.782Z,32.46
2022-08-30T13:01:32.562Z,32.51
2022-08-30T13:04:22.404Z,32.61
2022-08-30T13:06:52.929Z,32.53
2022-08-30T13:14:47.097Z,32.70
2022-08-30T13:17:24.333Z,32.77
2022-08-30T13:20:17.602Z,32.80
2022-08-30T13:23:06.385Z,32.78
2022-08-30T13:25:35.297Z,32.77
2022-08-30T13:28:04.372Z,32.97
2022-08-30T13:30:33.363Z,33.19
2022-08-30T13:40:56.910Z,33.77
2022-08-30T13:43:24.625Z,33.66
2022-08-30T13:45:53.087Z,33.64
2022-08-30T13:48:25.066Z,33.65
2022-08-30T13:50:56.952Z,33.53
2022-08-30T13:56:14.266Z,32.95
2022-08-30T14:01:23.257Z,33.47
2022-08-30T14:09:31.904Z,33.66
2022-08-30T14:12:04.093Z,33.94
2022-08-30T14:14:42.641Z,34.20
2022-08-30T14:17:15.424Z,34.42
2022-08-30T14:24:54.145Z,34.89
2022-08-30T14:27:23.322Z,34.80
2022-08-30T14:29:54.372Z,34.97
2022-08-30T14:32:23.734Z,35.06
2022-08-30T14:34:54.537Z,35.17
2022-08-30T14:37:23.353Z,35.24
2022-08-30T14:39:52.832Z,35.26
2022-08-30T14:49:51.645Z,34.50
2022-08-30T14:52:24.343Z,34.44
2022-08-30T14:54:57.495Z,34.67
2022-08-30T14:57:26.130Z,35.10
2022-08-30T14:59:53.498Z,35.50
2022-08-30T15:02:26.924Z,35.72
2022-08-30T15:04:54.661Z,35.76
2022-08-30T15:15:15.518Z,36.11
2022-08-30T15:17:44.619Z,36.28
2022-08-30T15:20:14.279Z,36.35
2022-08-30T15:22:43.308Z,36.46
2022-08-30T15:25:14.733Z,36.51
2022-08-30T15:27:43.528Z,36.59
2022-08-30T15:30:15.004Z,36.53
2022-08-30T15:36:56.742Z,36.35
2022-08-30T15:39:27.545Z,36.49
2022-08-30T15:42:00.915Z,36.42
2022-08-30T15:44:34.445Z,36.49
2022-08-30T15:47:05.410Z,36.70
2022-08-30T15:49:33.513Z,36.82
2022-08-30T15:52:04.723Z,36.98
2022-08-30T15:57:14.424Z,36.42
2022-08-30T15:59:43.693Z,36.41
2022-08-30T16:02:12.545Z,36.66
2022-08-30T16:04:41.718Z,36.82
2022-08-30T16:07:11.926Z,37.10
2022-08-30T16:09:41.921Z,37.27
2022-08-30T16:12:10.095Z,37.40
2022-08-30T16:19:26.745Z,36.67
2022-08-30T16:21:54.237Z,36.93
2022-08-30T16:24:24.720Z,37.10
2022-08-30T16:26:53.818Z,37.17
2022-08-30T16:29:23.019Z,37.06
2022-08-30T16:31:51.862Z,37.01
2022-08-30T16:34:23.093Z,36.98
2022-08-30T16:39:34.108Z,36.83
2022-08-30T16:42:06.589Z,36.86
2022-08-30T16:44:34.354Z,36.92
2022-08-30T16:47:03.734Z,37.07
2022-08-30T16:49:33.109Z,37.25
2022-08-30T16:52:02.691Z,37.28
2022-08-30T16:54:33.250Z,37.21
2022-08-30T17:01:45.231Z,36.62
2022-08-30T17:04:19.284Z,36.72
2022-08-30T17:06:50.420Z,36.82
2022-08-30T17:09:22.267Z,37.05
2022-08-30T17:11:50.448Z,37.22
2022-08-30T17:14:28.234Z,37.40
2022-08-30T17:17:00.403Z,37.51
2022-08-30T17:22:14.654Z,37.32
2022-08-30T17:24:43.787Z,37.49
2022-08-30T17:27:12.940Z,37.60
2022-08-30T17:29:42.237Z,37.58
2022-08-30T17:32:09.598Z,37.35
2022-08-30T17:34:38.968Z,37.51
2022-08-30T17:37:08.688Z,37.53
2022-08-30T17:44:29.836Z,37.57
2022-08-30T17:47:05.664Z,37.72
2022-08-30T17:49:33.900Z,37.63
2022-08-30T17:52:04.155Z,37.74
2022-08-30T17:54:37.285Z,37.89
2022-08-30T17:57:13.509Z,37.99
2022-08-30T17:59:42.341Z,38.25
2022-08-30T18:04:47.667Z,38.42
2022-08-30T18:07:18.080Z,38.42
2022-08-30T18:09:49.457Z,38.32
2022-08-30T18:12:16.782Z,38.27
2022-08-30T18:14:44.271Z,38.26
2022-08-30T18:17:13.749Z,38.22
2022-08-30T18:19:45.885Z,38.09
2022-08-30T18:22:16.436Z,37.91
2022-08-30T18:32:13.861Z,37.50
2022-08-30T18:34:43.466Z,37.57
2022-08-30T18:37:13.791Z,37.65
2022-08-30T18:39:44.269Z,37.57
2022-08-30T18:42:13.468Z,37.70
2022-08-30T18:44:43.490Z,37.79
2022-08-30T18:47:13.204Z,37.85
2022-08-30T18:49:46.198Z,37.77
2022-08-30T18:57:24.782Z,37.54
2022-08-30T18:59:54.173Z,37.61
2022-08-30T19:02:23.017Z,37.57
2022-08-30T19:04:55.567Z,37.68
2022-08-30T19:07:26.669Z,37.81
2022-08-30T19:09:59.123Z,37.91
2022-08-30T19:12:27.642Z,37.88
2022-08-30T19:19:46.297Z,37.69
2022-08-30T19:22:26.673Z,37.71
2022-08-30T19:24:54.988Z,37.71
2022-08-30T19:27:37.564Z,37.73
2022-08-30T19:30:15.183Z,37.73
2022-08-30T19:32:47.180Z,37.68
2022-08-30T19:35:15.367Z,37.57
2022-08-30T19:40:23.774Z,37.40
2022-08-30T19:42:54.562Z,37.36
2022-08-30T19:45:23.747Z,37.33
2022-08-30T19:47:54.649Z,37.28
2022-08-30T19:50:25.697Z,37.23
2022-08-30T19:52:55.198Z,37.23
2022-08-30T19:55:28.396Z,37.25
2022-08-30T20:03:03.168Z,37.36
2022-08-30T20:05:33.218Z,37.05
2022-08-30T20:08:00.914Z,36.95
2022-08-30T20:10:30.216Z,36.91
2022-08-30T20:13:03.818Z,37.01
2022-08-30T20:15:34.541Z,36.98
2022-08-30T20:18:06.151Z,37.05
2022-08-30T20:29:34.363Z,36.64
2022-08-30T20:32:03.323Z,36.59
2022-08-30T20:34:30.806Z,36.54
2022-08-30T20:36:59.707Z,36.47
2022-08-30T20:39:27.065Z,36.35
2022-08-30T20:41:54.574Z,36.39
2022-08-30T20:44:23.929Z,36.40
2022-08-30T20:46:54.689Z,36.33
2022-08-30T20:54:34.753Z,35.98
2022-08-30T20:57:04.745Z,36.04
2022-08-30T20:59:36.482Z,36.23
2022-08-30T21:02:04.547Z,36.25
2022-08-30T21:04:33.827Z,36.08
2022-08-30T21:07:02.940Z,36.08
2022-08-30T21:09:30.335Z,36.16
2022-08-30T21:12:00.172Z,36.10
2022-08-30T21:19:45.473Z,35.87
2022-08-30T21:22:14.697Z,35.80
2022-08-30T21:24:43.913Z,35.65
2022-08-30T21:27:13.792Z,35.62
2022-08-30T21:29:42.502Z,35.51
2022-08-30T21:32:10.109Z,35.47
2022-08-30T21:34:56.085Z,35.35
2022-08-30T21:41:57.281Z,35.30
2022-08-30T21:44:26.744Z,35.11
2022-08-30T21:46:55.244Z,34.92
2022-08-30T21:49:24.640Z,34.78
2022-08-30T21:51:55.230Z,34.73
2022-08-30T21:54:25.844Z,34.76
2022-08-30T21:57:03.834Z,34.75
2022-08-30T22:02:54.503Z,34.60
2022-08-30T22:05:23.563Z,34.61
2022-08-30T22:07:52.859Z,34.48
2022-08-30T22:10:24.249Z,34.46
2022-08-30T22:12:53.604Z,34.38
2022-08-30T22:15:23.863Z,34.27
2022-08-30T22:17:54.834Z,34.25
2022-08-30T22:20:24.594Z,34.18
2022-08-30T22:27:55.276Z,34.08
2022-08-30T22:30:24.203Z,34.17
2022-08-30T22:32:53.631Z,34.17
2022-08-30T22:35:29.170Z,34.21
2022-08-30T22:37:56.561Z,34.16
2022-08-30T22:40:24.949Z,34.05
2022-08-30T22:42:54.277Z,33.91
2022-08-30T22:49:09.805Z,33.95
2022-08-30T22:51:39.049Z,33.66
2022-08-30T22:54:08.161Z,33.46
2022-08-30T22:56:37.149Z,33.33
2022-08-30T22:59:05.887Z,33.29
2022-08-30T23:01:44.110Z,33.30
2022-08-30T23:04:14.387Z,33.26
2022-08-30T23:09:24.976Z,33.09
2022-08-30T23:11:54.261Z,33.01
2022-08-30T23:14:23.921Z,32.95
2022-08-30T23:16:53.395Z,32.88
2022-08-30T23:19:20.909Z,32.86
2022-08-30T23:21:50.979Z,32.80
2022-08-30T23:24:39.489Z,32.77
2022-08-30T23:36:14.105Z,32.63
2022-08-30T23:39:00.019Z,32.52
2022-08-30T23:41:46.152Z,32.42
2022-08-30T23:44:33.985Z,32.38
2022-08-30T23:47:19.983Z,32.29
2022-08-30T23:50:06.012Z,32.22
2022-08-30T23:52:54.159Z,32.17
